Nikolas — 3FIJ — position and weather

sailwx.info

Track history (hours):
 
Tides and Currents Weather Stations Pressure Air Temp Water Temp Dewpoint Dewpoint Depression Visibility Wind Speed Wind Dir Waves Ship Positions

Nikolas

Last reported at 2018-Jun-19 13:38 UTC. Time now 2018-Jun-20 13:29 UTC.
Position N 09°40' W 079°42'.

Length 207 m; draft 9 m.

Type: Cargo ship. MMSI: 357388000.

Date/timePositionNaut miles runAvg speedWind from/ knotsBaromVisibWave heightAir tempDewpointWater temp
2018-Jun-19 13:38N 09°40' W 079°42'310.3
2018-Jun-19 13:20N 09°38' W 079°44'310.3
2018-Jun-19 13:00N 09°35' W 079°46'510.4
2018-Jun-19 12:30N 09°31' W 079°49'510.6
2018-Jun-19 12:01N 09°27' W 079°52'5 9.3
2018-Jun-19 11:30N 09°22' W 079°54'1 1.4
2018-Jun-19 11:00N 09°22' W 079°53'0 0.0
2018-Jun-19 10:30N 09°22' W 079°53'0 0.0
2018-Jun-19 10:00N 09°22' W 079°53'0 0.0
2018-Jun-19 09:27N 09°22' W 079°53'0 0.0
2018-Jun-19 09:00N 09°22' W 079°53'0 0.0
2018-Jun-19 08:30N 09°22' W 079°53'0 0.0
2018-Jun-19 07:57N 09°22' W 079°53'0 0.0
2018-Jun-19 07:30N 09°22' W 079°53'0 0.0
2018-Jun-19 07:00N 09°22' W 079°53'0 0.0
2018-Jun-19 06:30N 09°22' W 079°53'0 0.0
2018-Jun-19 06:00N 09°22' W 079°53'0 0.0
2018-Jun-19 05:30N 09°22' W 079°53'0 0.0
2018-Jun-19 05:00N 09°22' W 079°53'0 0.0
2018-Jun-19 04:30N 09°22' W 079°53'0 0.0
2018-Jun-19 04:00N 09°22' W 079°53'0 0.0
2018-Jun-19 03:30N 09°22' W 079°53'0 0.0
2018-Jun-19 03:00N 09°22' W 079°53'0 0.0
2018-Jun-19 02:30N 09°22' W 079°53'0 0.0
2018-Jun-19 02:00N 09°22' W 079°53'0 0.0
2018-Jun-19 01:30N 09°22' W 079°53'0 0.0
2018-Jun-19 01:00N 09°22' W 079°53'0 0.5
2018-Jun-19 00:30N 09°22' W 079°53'2 3.8
2018-Jun-19 00:00N 09°24' W 079°54'3 5.3
2018-Jun-18 23:31N 09°26' W 079°54'2 0.8
2018-Jun-18 21:28N 09°27' W 079°52'0 0.0
2018-Jun-18 20:55N 09°27' W 079°52'0 0.1
2018-Jun-18 20:19N 09°27' W 079°52'0 0.2
2018-Jun-18 19:55N 09°27' W 079°52'0 0.1
2018-Jun-18 19:25N 09°27' W 079°52'0 0.0
2018-Jun-18 18:55N 09°27' W 079°52'0 0.0
2018-Jun-18 18:19N 09°27' W 079°52'0 0.1
2018-Jun-18 17:58N 09°27' W 079°52'0 0.0
2018-Jun-18 17:25N 09°27' W 079°52'0 0.0
2018-Jun-18 16:58N 09°27' W 079°52'0 0.1
2018-Jun-18 16:22N 09°27' W 079°52'0 0.1
2018-Jun-18 15:55N 09°27' W 079°52'0 0.0
2018-Jun-18 15:19N 09°27' W 079°52'0 0.0
2018-Jun-18 14:58N 09°27' W 079°52'0 0.0
2018-Jun-18 14:25N 09°27' W 079°52'0 0.0
2018-Jun-18 13:58N 09°27' W 079°52'0 0.1
2018-Jun-18 13:28N 09°27' W 079°52'0 0.0
2018-Jun-18 12:58N 09°27' W 079°52'0 0.0
2018-Jun-18 12:25N 09°27' W 079°52'0 0.0
2018-Jun-18 11:58N 09°27' W 079°52'0 0.0
2018-Jun-18 11:25N 09°27' W 079°52'0 0.0
2018-Jun-18 10:55N 09°27' W 079°52'0 0.1
2018-Jun-18 10:28N 09°27' W 079°52'0 0.0
2018-Jun-18 09:55N 09°27' W 079°52'0 0.1
2018-Jun-18 09:28N 09°27' W 079°52'0 0.0
2018-Jun-18 08:58N 09°27' W 079°52'0 0.2
2018-Jun-18 08:19N 09°27' W 079°52'0 0.0
2018-Jun-18 07:19N 09°27' W 079°52'0 0.2
2018-Jun-18 06:58N 09°27' W 079°52'0 0.1
2018-Jun-18 06:28N 09°27' W 079°52'0 0.0
2018-Jun-18 05:58N 09°27' W 079°52'0 0.0
2018-Jun-18 05:25N 09°27' W 079°52'0 0.0
2018-Jun-18 04:58N 09°27' W 079°52'0 0.0
2018-Jun-18 04:28N 09°27' W 079°52'0 0.0
2018-Jun-18 03:58N 09°27' W 079°52'0 0.0
2018-Jun-18 03:25N 09°27' W 079°52'0 0.0
2018-Jun-18 02:58N 09°27' W 079°52'0 0.1
2018-Jun-18 02:28N 09°27' W 079°52'0 0.0
2018-Jun-18 01:49N 09°27' W 079°52'0 0.0
2018-Jun-18 01:28N 09°27' W 079°52'0 0.0
2018-Jun-18 00:58N 09°27' W 079°52'0 0.0
2018-Jun-18 00:28N 09°27' W 079°52'0 0.0
2018-Jun-17 23:58N 09°27' W 079°52'0 0.0
2018-Jun-17 23:28N 09°27' W 079°52'0 0.1
2018-Jun-17 22:58N 09°27' W 079°52'0 0.2
2018-Jun-17 22:30N 09°27' W 079°52'4 8.0
2018-Jun-17 22:00N 09°24' W 079°55'3 6.1
2018-Jun-17 21:30N 09°21' W 079°55'0 0.7
2018-Jun-17 21:00N 09°21' W 079°54'0 0.0
2018-Jun-17 20:30N 09°21' W 079°54'0 0.0
2018-Jun-17 20:00N 09°21' W 079°54'0 0.0
2018-Jun-17 19:30N 09°21' W 079°54'0 0.0
2018-Jun-17 18:57N 09°21' W 079°54'0 0.0
2018-Jun-17 18:30N 09°21' W 079°54'0 0.0
2018-Jun-17 18:00N 09°21' W 079°54'0 0.0
2018-Jun-17 17:30N 09°21' W 079°54'0 0.0
2018-Jun-17 16:54N 09°21' W 079°54'0 0.0
2018-Jun-17 16:30N 09°21' W 079°54'0 0.0
2018-Jun-17 16:00N 09°21' W 079°54'0 0.0
2018-Jun-17 15:27N 09°21' W 079°54'0 0.0
2018-Jun-17 15:00N 09°21' W 079°54'0 0.0
2018-Jun-17 14:30N 09°21' W 079°54'0 0.0
2018-Jun-17 14:00N 09°21' W 079°54'0 0.0
2018-Jun-17 13:30N 09°21' W 079°54'0 0.0
2018-Jun-17 13:00N 09°21' W 079°54'0 0.0
2018-Jun-17 12:30N 09°21' W 079°54'0 0.0
2018-Jun-17 12:00N 09°21' W 079°54'0 0.0
2018-Jun-17 11:30N 09°21' W 079°54'0 0.0
2018-Jun-17 10:57N 09°21' W 079°54'0 0.0
2018-Jun-17 10:30N 09°21' W 079°54'0 0.1
2018-Jun-17 10:00N 09°21' W 079°54'0 0.1
2018-Jun-17 09:30N 09°21' W 079°54'0 0.0
2018-Jun-17 09:00N 09°21' W 079°54'0 0.0
2018-Jun-17 08:30N 09°21' W 079°54'0 0.0
2018-Jun-17 08:00N 09°21' W 079°54'0 0.0
2018-Jun-17 07:30N 09°21' W 079°54'0 0.0
2018-Jun-17 06:57N 09°21' W 079°54'0 0.1
2018-Jun-17 06:30N 09°21' W 079°54'0 0.0
2018-Jun-17 05:58N 09°21' W 079°54'0 0.1
2018-Jun-17 05:28N 09°21' W 079°54'0 0.1
2018-Jun-17 04:58N 09°21' W 079°54'0 0.0
2018-Jun-17 04:28N 09°21' W 079°54'0 0.2
2018-Jun-17 04:00N 09°21' W 079°55'1 2.2
2018-Jun-17 03:30N 09°22' W 079°55'3 5.5
2018-Jun-17 03:00N 09°25' W 079°55'3 5.6
2018-Jun-17 02:30N 09°28' W 079°55'3 5.4
2018-Jun-17 01:55N 09°30' W 079°54'  
Track history (hours):
 
Tides and Currents Weather Stations Pressure Air Temp Water Temp Dewpoint Dewpoint Depression Visibility Wind Speed Wind Dir Waves Ship Positions

Nikolas

Last reported at 2018-Jun-19 13:38 UTC. Time now 2018-Jun-20 13:29 UTC.
Position N 09°40' W 079°42'.

Length 207 m; draft 9 m.

Type: Cargo ship. MMSI: 357388000.

Date/timePositionNaut miles runAvg speedWind from/ knotsBaromVisibWave heightAir tempDewpointWater temp
2018-Jun-19 13:38N 09°40' W 079°42'310.3
2018-Jun-19 13:20N 09°38' W 079°44'310.3
2018-Jun-19 13:00N 09°35' W 079°46'510.4
2018-Jun-19 12:30N 09°31' W 079°49'510.6
2018-Jun-19 12:01N 09°27' W 079°52'5 9.3
2018-Jun-19 11:30N 09°22' W 079°54'1 1.4
2018-Jun-19 11:00N 09°22' W 079°53'0 0.0
2018-Jun-19 10:30N 09°22' W 079°53'0 0.0
2018-Jun-19 10:00N 09°22' W 079°53'0 0.0
2018-Jun-19 09:27N 09°22' W 079°53'0 0.0
2018-Jun-19 09:00N 09°22' W 079°53'0 0.0
2018-Jun-19 08:30N 09°22' W 079°53'0 0.0
2018-Jun-19 07:57N 09°22' W 079°53'0 0.0
2018-Jun-19 07:30N 09°22' W 079°53'0 0.0
2018-Jun-19 07:00N 09°22' W 079°53'0 0.0
2018-Jun-19 06:30N 09°22' W 079°53'0 0.0
2018-Jun-19 06:00N 09°22' W 079°53'0 0.0
2018-Jun-19 05:30N 09°22' W 079°53'0 0.0
2018-Jun-19 05:00N 09°22' W 079°53'0 0.0
2018-Jun-19 04:30N 09°22' W 079°53'0 0.0
2018-Jun-19 04:00N 09°22' W 079°53'0 0.0
2018-Jun-19 03:30N 09°22' W 079°53'0 0.0
2018-Jun-19 03:00N 09°22' W 079°53'0 0.0
2018-Jun-19 02:30N 09°22' W 079°53'0 0.0
2018-Jun-19 02:00N 09°22' W 079°53'0 0.0
2018-Jun-19 01:30N 09°22' W 079°53'0 0.0
2018-Jun-19 01:00N 09°22' W 079°53'0 0.5
2018-Jun-19 00:30N 09°22' W 079°53'2 3.8
2018-Jun-19 00:00N 09°24' W 079°54'3 5.3
2018-Jun-18 23:31N 09°26' W 079°54'2 0.8
2018-Jun-18 21:28N 09°27' W 079°52'0 0.0
2018-Jun-18 20:55N 09°27' W 079°52'0 0.1
2018-Jun-18 20:19N 09°27' W 079°52'0 0.2
2018-Jun-18 19:55N 09°27' W 079°52'0 0.1
2018-Jun-18 19:25N 09°27' W 079°52'0 0.0
2018-Jun-18 18:55N 09°27' W 079°52'0 0.0
2018-Jun-18 18:19N 09°27' W 079°52'0 0.1
2018-Jun-18 17:58N 09°27' W 079°52'0 0.0
2018-Jun-18 17:25N 09°27' W 079°52'0 0.0
2018-Jun-18 16:58N 09°27' W 079°52'0 0.1
2018-Jun-18 16:22N 09°27' W 079°52'0 0.1
2018-Jun-18 15:55N 09°27' W 079°52'0 0.0
2018-Jun-18 15:19N 09°27' W 079°52'0 0.0
2018-Jun-18 14:58N 09°27' W 079°52'0 0.0
2018-Jun-18 14:25N 09°27' W 079°52'0 0.0
2018-Jun-18 13:58N 09°27' W 079°52'0 0.1
2018-Jun-18 13:28N 09°27' W 079°52'0 0.0
2018-Jun-18 12:58N 09°27' W 079°52'0 0.0
2018-Jun-18 12:25N 09°27' W 079°52'0 0.0
2018-Jun-18 11:58N 09°27' W 079°52'0 0.0
2018-Jun-18 11:25N 09°27' W 079°52'0 0.0
2018-Jun-18 10:55N 09°27' W 079°52'0 0.1
2018-Jun-18 10:28N 09°27' W 079°52'0 0.0
2018-Jun-18 09:55N 09°27' W 079°52'0 0.1
2018-Jun-18 09:28N 09°27' W 079°52'0 0.0
2018-Jun-18 08:58N 09°27' W 079°52'0 0.2
2018-Jun-18 08:19N 09°27' W 079°52'0 0.0
2018-Jun-18 07:19N 09°27' W 079°52'0 0.2
2018-Jun-18 06:58N 09°27' W 079°52'0 0.1
2018-Jun-18 06:28N 09°27' W 079°52'0 0.0
2018-Jun-18 05:58N 09°27' W 079°52'0 0.0
2018-Jun-18 05:25N 09°27' W 079°52'0 0.0
2018-Jun-18 04:58N 09°27' W 079°52'0 0.0
2018-Jun-18 04:28N 09°27' W 079°52'0 0.0
2018-Jun-18 03:58N 09°27' W 079°52'0 0.0
2018-Jun-18 03:25N 09°27' W 079°52'0 0.0
2018-Jun-18 02:58N 09°27' W 079°52'0 0.1
2018-Jun-18 02:28N 09°27' W 079°52'0 0.0
2018-Jun-18 01:49N 09°27' W 079°52'0 0.0
2018-Jun-18 01:28N 09°27' W 079°52'0 0.0
2018-Jun-18 00:58N 09°27' W 079°52'0 0.0
2018-Jun-18 00:28N 09°27' W 079°52'0 0.0
2018-Jun-17 23:58N 09°27' W 079°52'0 0.0
2018-Jun-17 23:28N 09°27' W 079°52'0 0.1
2018-Jun-17 22:58N 09°27' W 079°52'0 0.2
2018-Jun-17 22:30N 09°27' W 079°52'4 8.0
2018-Jun-17 22:00N 09°24' W 079°55'3 6.1
2018-Jun-17 21:30N 09°21' W 079°55'0 0.7
2018-Jun-17 21:00N 09°21' W 079°54'0 0.0
2018-Jun-17 20:30N 09°21' W 079°54'0 0.0
2018-Jun-17 20:00N 09°21' W 079°54'0 0.0
2018-Jun-17 19:30N 09°21' W 079°54'0 0.0
2018-Jun-17 18:57N 09°21' W 079°54'0 0.0
2018-Jun-17 18:30N 09°21' W 079°54'0 0.0
2018-Jun-17 18:00N 09°21' W 079°54'0 0.0
2018-Jun-17 17:30N 09°21' W 079°54'0 0.0
2018-Jun-17 16:54N 09°21' W 079°54'0 0.0
2018-Jun-17 16:30N 09°21' W 079°54'0 0.0
2018-Jun-17 16:00N 09°21' W 079°54'0 0.0
2018-Jun-17 15:27N 09°21' W 079°54'0 0.0
2018-Jun-17 15:00N 09°21' W 079°54'0 0.0
2018-Jun-17 14:30N 09°21' W 079°54'0 0.0
2018-Jun-17 14:00N 09°21' W 079°54'0 0.0
2018-Jun-17 13:30N 09°21' W 079°54'0 0.0
2018-Jun-17 13:00N 09°21' W 079°54'0 0.0
2018-Jun-17 12:30N 09°21' W 079°54'0 0.0
2018-Jun-17 12:00N 09°21' W 079°54'0 0.0
2018-Jun-17 11:30N 09°21' W 079°54'0 0.0
2018-Jun-17 10:57N 09°21' W 079°54'0 0.0
2018-Jun-17 10:30N 09°21' W 079°54'0 0.1
2018-Jun-17 10:00N 09°21' W 079°54'0 0.1
2018-Jun-17 09:30N 09°21' W 079°54'0 0.0
2018-Jun-17 09:00N 09°21' W 079°54'0 0.0
2018-Jun-17 08:30N 09°21' W 079°54'0 0.0
2018-Jun-17 08:00N 09°21' W 079°54'0 0.0
2018-Jun-17 07:30N 09°21' W 079°54'0 0.0
2018-Jun-17 06:57N 09°21' W 079°54'0 0.1
2018-Jun-17 06:30N 09°21' W 079°54'0 0.0
2018-Jun-17 05:58N 09°21' W 079°54'0 0.1
2018-Jun-17 05:28N 09°21' W 079°54'0 0.1
2018-Jun-17 04:58N 09°21' W 079°54'0 0.0
2018-Jun-17 04:28N 09°21' W 079°54'0 0.2
2018-Jun-17 04:00N 09°21' W 079°55'1 2.2
2018-Jun-17 03:30N 09°22' W 079°55'3 5.5
2018-Jun-17 03:00N 09°25' W 079°55'3 5.6
2018-Jun-17 02:30N 09°28' W 079°55'3 5.4
2018-Jun-17 01:55N 09°30' W 079°54'  

Dump ship's entire track history